sensor_id;sensor_type;location;lat;lon;timestamp;P1;durP1;ratioP1;P2;durP2;ratioP2
26977;SDS011;56314;48.088;11.642;2022-09-09T00:06:53;5.22;;;1.80;;
26977;SDS011;56314;48.088;11.642;2022-09-09T00:09:28;2.00;;;1.80;;
26977;SDS011;56314;48.088;11.642;2022-09-09T00:12:04;2.25;;;1.60;;
26977;SDS011;56314;48.088;11.642;2022-09-09T00:14:45;3.28;;;1.60;;
26977;SDS011;56314;48.088;11.642;2022-09-09T00:20:39;6.63;;;1.58;;
26977;SDS011;56314;48.088;11.642;2022-09-09T00:23:14;3.50;;;1.85;;
26977;SDS011;56314;48.088;11.642;2022-09-09T00:28:20;1.73;;;1.63;;
26977;SDS011;56314;48.088;11.642;2022-09-09T00:30:49;2.72;;;1.70;;
26977;SDS011;56314;48.088;11.642;2022-09-09T00:33:17;2.72;;;1.83;;
26977;SDS011;56314;48.088;11.642;2022-09-09T00:35:47;4.15;;;1.80;;
26977;SDS011;56314;48.088;11.642;2022-09-09T00:38:49;2.15;;;1.92;;
26977;SDS011;56314;48.088;11.642;2022-09-09T00:49:58;3.70;;;1.73;;
26977;SDS011;56314;48.088;11.642;2022-09-09T00:57:48;1.55;;;1.45;;
26977;SDS011;56314;48.088;11.642;2022-09-09T01:00:24;1.95;;;1.77;;
26977;SDS011;56314;48.088;11.642;2022-09-09T01:03:12;2.80;;;1.60;;
26977;SDS011;56314;48.088;11.642;2022-09-09T01:05:48;4.07;;;1.77;;
26977;SDS011;56314;48.088;11.642;2022-09-09T01:11:07;2.08;;;1.63;;
26977;SDS011;56314;48.088;11.642;2022-09-09T01:13:41;1.80;;;1.42;;
26977;SDS011;56314;48.088;11.642;2022-09-09T01:16:08;2.13;;;1.40;;
26977;SDS011;56314;48.088;11.642;2022-09-09T01:21:39;3.17;;;1.50;;
26977;SDS011;56314;48.088;11.642;2022-09-09T01:24:22;2.83;;;1.30;;
26977;SDS011;56314;48.088;11.642;2022-09-09T01:26:56;1.50;;;1.40;;
26977;SDS011;56314;48.088;11.642;2022-09-09T01:29:25;4.13;;;1.80;;
26977;SDS011;56314;48.088;11.642;2022-09-09T01:31:53;2.75;;;1.55;;
26977;SDS011;56314;48.088;11.642;2022-09-09T01:34:24;3.40;;;1.40;;
26977;SDS011;56314;48.088;11.642;2022-09-09T01:37:03;2.72;;;1.20;;
26977;SDS011;56314;48.088;11.642;2022-09-09T01:39:32;6.07;;;1.90;;
26977;SDS011;56314;48.088;11.642;2022-09-09T01:41:59;3.15;;;1.67;;
26977;SDS011;56314;48.088;11.642;2022-09-09T01:44:25;2.53;;;1.50;;
26977;SDS011;56314;48.088;11.642;2022-09-09T01:46:52;3.08;;;1.55;;
26977;SDS011;56314;48.088;11.642;2022-09-09T01:49:17;1.58;;;1.30;;
26977;SDS011;56314;48.088;11.642;2022-09-09T01:51:43;3.22;;;1.65;;
26977;SDS011;56314;48.088;11.642;2022-09-09T01:54:12;1.55;;;1.42;;
26977;SDS011;56314;48.088;11.642;2022-09-09T01:56:40;3.88;;;1.48;;
26977;SDS011;56314;48.088;11.642;2022-09-09T02:06:57;3.13;;;1.30;;
26977;SDS011;56314;48.088;11.642;2022-09-09T02:09:23;2.97;;;1.35;;
26977;SDS011;56314;48.088;11.642;2022-09-09T02:11:52;3.67;;;1.60;;
26977;SDS011;56314;48.088;11.642;2022-09-09T02:14:25;2.08;;;1.20;;
26977;SDS011;56314;48.088;11.642;2022-09-09T02:17:02;5.45;;;1.50;;
26977;SDS011;56314;48.088;11.642;2022-09-09T02:19:34;3.95;;;1.40;;
26977;SDS011;56314;48.088;11.642;2022-09-09T02:22:11;5.82;;;1.63;;
26977;SDS011;56314;48.088;11.642;2022-09-09T02:24:37;3.00;;;1.60;;
26977;SDS011;56314;48.088;11.642;2022-09-09T02:27:05;4.55;;;2.08;;
26977;SDS011;56314;48.088;11.642;2022-09-09T02:29:34;3.10;;;1.60;;
26977;SDS011;56314;48.088;11.642;2022-09-09T02:32:04;4.97;;;2.08;;
26977;SDS011;56314;48.088;11.642;2022-09-09T02:34:34;2.05;;;1.75;;
26977;SDS011;56314;48.088;11.642;2022-09-09T02:37:02;2.42;;;1.40;;
26977;SDS011;56314;48.088;11.642;2022-09-09T02:39:28;2.55;;;1.58;;
26977;SDS011;56314;48.088;11.642;2022-09-09T02:41:54;3.50;;;1.30;;
26977;SDS011;56314;48.088;11.642;2022-09-09T02:44:19;1.48;;;1.30;;
26977;SDS011;56314;48.088;11.642;2022-09-09T02:58:01;2.72;;;1.60;;
26977;SDS011;56314;48.088;11.642;2022-09-09T03:00:31;5.28;;;1.70;;
26977;SDS011;56314;48.088;11.642;2022-09-09T03:02:57;2.72;;;1.65;;
26977;SDS011;56314;48.088;11.642;2022-09-09T03:05:23;1.92;;;1.30;;
26977;SDS011;56314;48.088;11.642;2022-09-09T03:07:50;5.30;;;1.55;;
26977;SDS011;56314;48.088;11.642;2022-09-09T03:10:16;4.45;;;1.40;;
26977;SDS011;56314;48.088;11.642;2022-09-09T03:12:42;4.45;;;1.65;;
26977;SDS011;56314;48.088;11.642;2022-09-09T03:15:08;4.47;;;1.55;;
26977;SDS011;56314;48.088;11.642;2022-09-09T03:17:34;3.47;;;1.70;;
26977;SDS011;56314;48.088;11.642;2022-09-09T03:20:00;3.25;;;1.42;;
26977;SDS011;56314;48.088;11.642;2022-09-09T03:22:27;2.47;;;1.70;;
26977;SDS011;56314;48.088;11.642;2022-09-09T03:24:52;1.95;;;1.35;;
26977;SDS011;56314;48.088;11.642;2022-09-09T03:27:18;3.65;;;1.45;;
26977;SDS011;56314;48.088;11.642;2022-09-09T03:29:44;4.53;;;1.50;;
26977;SDS011;56314;48.088;11.642;2022-09-09T03:32:10;2.47;;;1.52;;
26977;SDS011;56314;48.088;11.642;2022-09-09T03:34:35;6.03;;;1.58;;
26977;SDS011;56314;48.088;11.642;2022-09-09T03:37:05;3.78;;;1.70;;
26977;SDS011;56314;48.088;11.642;2022-09-09T03:39:31;1.92;;;1.40;;
26977;SDS011;56314;48.088;11.642;2022-09-09T03:41:56;3.70;;;1.70;;
26977;SDS011;56314;48.088;11.642;2022-09-09T03:44:21;3.30;;;1.55;;
26977;SDS011;56314;48.088;11.642;2022-09-09T03:46:47;1.85;;;1.48;;
26977;SDS011;56314;48.088;11.642;2022-09-09T03:49:12;5.82;;;1.50;;
26977;SDS011;56314;48.088;11.642;2022-09-09T03:51:38;3.33;;;1.40;;
26977;SDS011;56314;48.088;11.642;2022-09-09T03:54:04;4.25;;;1.13;;
26977;SDS011;56314;48.088;11.642;2022-09-09T03:56:33;4.15;;;1.70;;
26977;SDS011;56314;48.088;11.642;2022-09-09T03:59:00;4.07;;;1.50;;
26977;SDS011;56314;48.088;11.642;2022-09-09T04:01:25;4.22;;;1.63;;
26977;SDS011;56314;48.088;11.642;2022-09-09T04:03:51;2.33;;;1.30;;
26977;SDS011;56314;48.088;11.642;2022-09-09T04:06:17;1.40;;;1.30;;
26977;SDS011;56314;48.088;11.642;2022-09-09T04:08:44;1.75;;;1.42;;
26977;SDS011;56314;48.088;11.642;2022-09-09T04:11:13;1.65;;;1.50;;
26977;SDS011;56314;48.088;11.642;2022-09-09T04:13:38;1.48;;;1.33;;
26977;SDS011;56314;48.088;11.642;2022-09-09T04:16:04;1.70;;;1.50;;
26977;SDS011;56314;48.088;11.642;2022-09-09T04:18:30;3.03;;;1.40;;
26977;SDS011;56314;48.088;11.642;2022-09-09T04:20:56;2.70;;;1.27;;
26977;SDS011;56314;48.088;11.642;2022-09-09T04:23:22;1.20;;;1.10;;
26977;SDS011;56314;48.088;11.642;2022-09-09T04:25:53;2.47;;;1.35;;
26977;SDS011;56314;48.088;11.642;2022-09-09T04:28:19;3.35;;;1.23;;
26977;SDS011;56314;48.088;11.642;2022-09-09T04:30:46;1.85;;;1.50;;
26977;SDS011;56314;48.088;11.642;2022-09-09T04:33:12;2.83;;;1.40;;
26977;SDS011;56314;48.088;11.642;2022-09-09T04:35:38;2.28;;;1.27;;
26977;SDS011;56314;48.088;11.642;2022-09-09T04:38:08;3.78;;;1.45;;
26977;SDS011;56314;48.088;11.642;2022-09-09T04:40:34;6.35;;;1.60;;
26977;SDS011;56314;48.088;11.642;2022-09-09T04:43:00;5.47;;;1.55;;
26977;SDS011;56314;48.088;11.642;2022-09-09T04:45:28;2.40;;;1.40;;
26977;SDS011;56314;48.088;11.642;2022-09-09T04:47:53;1.55;;;1.30;;
26977;SDS011;56314;48.088;11.642;2022-09-09T04:50:18;2.80;;;1.50;;
26977;SDS011;56314;48.088;11.642;2022-09-09T04:52:44;3.15;;;1.58;;
26977;SDS011;56314;48.088;11.642;2022-09-09T04:55:09;3.35;;;1.25;;
26977;SDS011;56314;48.088;11.642;2022-09-09T04:57:35;2.08;;;1.30;;
26977;SDS011;56314;48.088;11.642;2022-09-09T05:00:00;3.88;;;1.40;;
26977;SDS011;56314;48.088;11.642;2022-09-09T05:02:26;3.17;;;1.33;;
26977;SDS011;56314;48.088;11.642;2022-09-09T05:04:52;4.15;;;1.70;;
26977;SDS011;56314;48.088;11.642;2022-09-09T05:07:17;2.15;;;1.67;;
26977;SDS011;56314;48.088;11.642;2022-09-09T05:09:43;5.20;;;1.67;;
26977;SDS011;56314;48.088;11.642;2022-09-09T05:12:10;2.05;;;1.60;;
26977;SDS011;56314;48.088;11.642;2022-09-09T05:14:36;3.63;;;1.88;;
26977;SDS011;56314;48.088;11.642;2022-09-09T05:17:02;2.67;;;1.63;;
26977;SDS011;56314;48.088;11.642;2022-09-09T05:19:28;3.42;;;1.83;;
26977;SDS011;56314;48.088;11.642;2022-09-09T05:21:53;2.40;;;1.63;;
26977;SDS011;56314;48.088;11.642;2022-09-09T05:24:19;3.42;;;1.95;;
26977;SDS011;56314;48.088;11.642;2022-09-09T05:26:44;2.67;;;1.42;;
26977;SDS011;56314;48.088;11.642;2022-09-09T05:29:10;2.85;;;1.73;;
26977;SDS011;56314;48.088;11.642;2022-09-09T05:31:35;1.85;;;1.27;;
26977;SDS011;56314;48.088;11.642;2022-09-09T05:34:00;3.90;;;1.33;;
26977;SDS011;56314;48.088;11.642;2022-09-09T05:36:26;1.52;;;1.40;;
26977;SDS011;56314;48.088;11.642;2022-09-09T05:38:51;2.55;;;1.42;;
26977;SDS011;56314;48.088;11.642;2022-09-09T05:41:18;2.17;;;1.17;;
26977;SDS011;56314;48.088;11.642;2022-09-09T05:43:45;2.35;;;1.10;;
26977;SDS011;56314;48.088;11.642;2022-09-09T05:46:15;3.25;;;1.63;;
26977;SDS011;56314;48.088;11.642;2022-09-09T05:48:44;2.38;;;1.10;;
26977;SDS011;56314;48.088;11.642;2022-09-09T05:51:16;4.47;;;1.70;;
26977;SDS011;56314;48.088;11.642;2022-09-09T05:53:43;3.45;;;1.75;;
26977;SDS011;56314;48.088;11.642;2022-09-09T05:56:14;5.97;;;2.20;;
26977;SDS011;56314;48.088;11.642;2022-09-09T05:58:41;3.35;;;2.03;;
26977;SDS011;56314;48.088;11.642;2022-09-09T06:01:11;4.90;;;2.10;;
26977;SDS011;56314;48.088;11.642;2022-09-09T06:03:41;3.97;;;1.80;;
26977;SDS011;56314;48.088;11.642;2022-09-09T06:06:09;2.13;;;1.60;;
26977;SDS011;56314;48.088;11.642;2022-09-09T06:08:37;3.85;;;1.65;;
26977;SDS011;56314;48.088;11.642;2022-09-09T06:11:05;2.20;;;1.80;;
26977;SDS011;56314;48.088;11.642;2022-09-09T06:13:32;3.30;;;1.80;;
26977;SDS011;56314;48.088;11.642;2022-09-09T06:15:58;3.88;;;1.58;;
26977;SDS011;56314;48.088;11.642;2022-09-09T06:18:24;3.88;;;1.40;;
26977;SDS011;56314;48.088;11.642;2022-09-09T06:21:09;3.05;;;1.75;;
26977;SDS011;56314;48.088;11.642;2022-09-09T06:23:40;1.88;;;1.35;;
26977;SDS011;56314;48.088;11.642;2022-09-09T06:26:07;1.60;;;1.27;;
26977;SDS011;56314;48.088;11.642;2022-09-09T06:28:37;3.25;;;1.60;;
26977;SDS011;56314;48.088;11.642;2022-09-09T06:31:04;2.30;;;1.40;;
26977;SDS011;56314;48.088;11.642;2022-09-09T06:33:31;2.25;;;1.27;;
26977;SDS011;56314;48.088;11.642;2022-09-09T06:36:01;2.13;;;1.13;;
26977;SDS011;56314;48.088;11.642;2022-09-09T06:38:28;2.25;;;1.13;;
26977;SDS011;56314;48.088;11.642;2022-09-09T06:40:54;6.22;;;1.60;;
26977;SDS011;56314;48.088;11.642;2022-09-09T06:43:21;1.80;;;1.23;;
26977;SDS011;56314;48.088;11.642;2022-09-09T06:46:01;1.73;;;1.13;;
26977;SDS011;56314;48.088;11.642;2022-09-09T06:48:29;2.45;;;1.10;;
26977;SDS011;56314;48.088;11.642;2022-09-09T06:51:02;4.18;;;1.48;;
26977;SDS011;56314;48.088;11.642;2022-09-09T06:53:32;1.00;;;0.95;;
26977;SDS011;56314;48.088;11.642;2022-09-09T06:56:21;2.45;;;1.08;;
26977;SDS011;56314;48.088;11.642;2022-09-09T06:58:48;2.92;;;1.10;;
26977;SDS011;56314;48.088;11.642;2022-09-09T07:01:15;4.32;;;1.40;;
26977;SDS011;56314;48.088;11.642;2022-09-09T07:03:42;3.78;;;1.52;;
26977;SDS011;56314;48.088;11.642;2022-09-09T07:06:17;4.82;;;1.00;;
26977;SDS011;56314;48.088;11.642;2022-09-09T07:08:48;3.15;;;1.27;;
26977;SDS011;56314;48.088;11.642;2022-09-09T07:11:18;3.20;;;1.48;;
26977;SDS011;56314;48.088;11.642;2022-09-09T07:13:44;2.35;;;1.60;;
26977;SDS011;56314;48.088;11.642;2022-09-09T07:16:10;1.00;;;0.90;;
26977;SDS011;56314;48.088;11.642;2022-09-09T07:18:38;4.47;;;1.20;;
26977;SDS011;56314;48.088;11.642;2022-09-09T07:21:05;1.85;;;1.20;;
26977;SDS011;56314;48.088;11.642;2022-09-09T07:23:31;2.67;;;1.10;;
26977;SDS011;56314;48.088;11.642;2022-09-09T07:25:57;1.58;;;1.20;;
26977;SDS011;56314;48.088;11.642;2022-09-09T07:28:24;1.92;;;1.13;;
26977;SDS011;56314;48.088;11.642;2022-09-09T07:30:54;3.65;;;1.38;;
26977;SDS011;56314;48.088;11.642;2022-09-09T07:33:19;6.05;;;1.70;;
26977;SDS011;56314;48.088;11.642;2022-09-09T07:35:45;2.85;;;1.60;;
26977;SDS011;56314;48.088;11.642;2022-09-09T07:38:10;1.48;;;1.10;;
26977;SDS011;56314;48.088;11.642;2022-09-09T07:40:36;2.88;;;1.15;;
26977;SDS011;56314;48.088;11.642;2022-09-09T07:43:01;1.52;;;1.33;;
26977;SDS011;56314;48.088;11.642;2022-09-09T07:45:27;2.08;;;1.20;;
26977;SDS011;56314;48.088;11.642;2022-09-09T07:47:57;4.38;;;2.00;;
26977;SDS011;56314;48.088;11.642;2022-09-09T07:50:23;2.75;;;1.35;;
26977;SDS011;56314;48.088;11.642;2022-09-09T07:52:49;2.95;;;1.10;;
26977;SDS011;56314;48.088;11.642;2022-09-09T07:55:18;3.15;;;1.13;;
26977;SDS011;56314;48.088;11.642;2022-09-09T07:57:45;4.50;;;1.38;;
26977;SDS011;56314;48.088;11.642;2022-09-09T08:00:11;1.85;;;1.38;;
26977;SDS011;56314;48.088;11.642;2022-09-09T08:02:39;2.15;;;0.85;;
26977;SDS011;56314;48.088;11.642;2022-09-09T08:05:04;1.63;;;1.08;;
26977;SDS011;56314;48.088;11.642;2022-09-09T08:07:31;1.83;;;1.00;;
26977;SDS011;56314;48.088;11.642;2022-09-09T08:09:56;2.80;;;1.20;;
26977;SDS011;56314;48.088;11.642;2022-09-09T08:12:22;1.77;;;1.15;;
26977;SDS011;56314;48.088;11.642;2022-09-09T08:14:48;4.47;;;1.27;;
26977;SDS011;56314;48.088;11.642;2022-09-09T08:17:13;7.05;;;1.10;;
26977;SDS011;56314;48.088;11.642;2022-09-09T08:19:39;4.40;;;1.10;;
26977;SDS011;56314;48.088;11.642;2022-09-09T08:22:04;5.60;;;1.20;;
26977;SDS011;56314;48.088;11.642;2022-09-09T08:24:31;4.25;;;1.08;;
26977;SDS011;56314;48.088;11.642;2022-09-09T08:26:56;3.08;;;1.27;;
26977;SDS011;56314;48.088;11.642;2022-09-09T08:29:22;3.35;;;1.10;;
26977;SDS011;56314;48.088;11.642;2022-09-09T08:31:49;2.25;;;1.00;;
26977;SDS011;56314;48.088;11.642;2022-09-09T08:34:19;2.95;;;1.05;;
26977;SDS011;56314;48.088;11.642;2022-09-09T08:36:45;1.70;;;1.08;;
26977;SDS011;56314;48.088;11.642;2022-09-09T08:39:13;3.17;;;1.15;;
26977;SDS011;56314;48.088;11.642;2022-09-09T08:52:55;2.80;;;1.90;;
26977;SDS011;56314;48.088;11.642;2022-09-09T08:58:38;2.85;;;1.20;;
26977;SDS011;56314;48.088;11.642;2022-09-09T09:06:50;2.25;;;1.60;;
26977;SDS011;56314;48.088;11.642;2022-09-09T09:11:57;4.28;;;2.28;;
26977;SDS011;56314;48.088;11.642;2022-09-09T09:14:27;2.67;;;1.33;;
26977;SDS011;56314;48.088;11.642;2022-09-09T09:19:28;2.08;;;1.30;;
26977;SDS011;56314;48.088;11.642;2022-09-09T09:24:53;5.88;;;1.58;;
26977;SDS011;56314;48.088;11.642;2022-09-09T09:27:49;3.95;;;1.55;;
26977;SDS011;56314;48.088;11.642;2022-09-09T09:30:21;4.68;;;1.48;;
26977;SDS011;56314;48.088;11.642;2022-09-09T09:35:41;3.28;;;1.65;;
26977;SDS011;56314;48.088;11.642;2022-09-09T09:38:25;4.78;;;1.42;;
26977;SDS011;56314;48.088;11.642;2022-09-09T09:40:53;1.92;;;1.17;;
26977;SDS011;56314;48.088;11.642;2022-09-09T09:43:29;5.18;;;1.42;;
26977;SDS011;56314;48.088;11.642;2022-09-09T09:46:00;6.07;;;1.33;;
26977;SDS011;56314;48.088;11.642;2022-09-09T09:48:28;4.30;;;1.45;;
26977;SDS011;56314;48.088;11.642;2022-09-09T09:50:57;1.85;;;1.20;;
26977;SDS011;56314;48.088;11.642;2022-09-09T09:53:29;4.10;;;1.30;;
26977;SDS011;56314;48.088;11.642;2022-09-09T09:56:01;2.83;;;1.30;;
26977;SDS011;56314;48.088;11.642;2022-09-09T09:58:32;5.68;;;1.05;;
26977;SDS011;56314;48.088;11.642;2022-09-09T10:01:03;1.27;;;1.17;;
26977;SDS011;56314;48.088;11.642;2022-09-09T10:03:30;2.05;;;1.17;;
26977;SDS011;56314;48.088;11.642;2022-09-09T10:05:57;2.50;;;1.00;;
26977;SDS011;56314;48.088;11.642;2022-09-09T10:08:26;3.60;;;1.38;;
26977;SDS011;56314;48.088;11.642;2022-09-09T10:11:06;3.17;;;1.35;;
26977;SDS011;56314;48.088;11.642;2022-09-09T10:13:48;3.65;;;1.10;;
26977;SDS011;56314;48.088;11.642;2022-09-09T10:19:11;1.97;;;1.07;;
26977;SDS011;56314;48.088;11.642;2022-09-09T10:26:55;3.45;;;1.02;;
26977;SDS011;56314;48.088;11.642;2022-09-09T10:38:17;4.43;;;1.23;;
26977;SDS011;56314;48.088;11.642;2022-09-09T10:51:16;2.67;;;1.13;;
26977;SDS011;56314;48.088;11.642;2022-09-09T10:54:23;4.07;;;1.08;;
26977;SDS011;56314;48.088;11.642;2022-09-09T10:56:55;1.98;;;1.00;;
26977;SDS011;56314;48.088;11.642;2022-09-09T10:59:30;2.70;;;1.00;;
26977;SDS011;56314;48.088;11.642;2022-09-09T11:02:16;2.40;;;1.00;;
26977;SDS011;56314;48.088;11.642;2022-09-09T11:07:29;6.53;;;1.00;;
26977;SDS011;56314;48.088;11.642;2022-09-09T11:10:04;1.08;;;0.88;;
26977;SDS011;56314;48.088;11.642;2022-09-09T11:12:41;1.92;;;0.80;;
26977;SDS011;56314;48.088;11.642;2022-09-09T11:15:17;2.60;;;0.70;;
26977;SDS011;56314;48.088;11.642;2022-09-09T11:17:58;1.85;;;0.90;;
26977;SDS011;56314;48.088;11.642;2022-09-09T11:20:32;1.92;;;1.30;;
26977;SDS011;56314;48.088;11.642;2022-09-09T11:23:13;1.30;;;1.10;;
26977;SDS011;56314;48.088;11.642;2022-09-09T11:25:44;2.70;;;0.95;;
26977;SDS011;56314;48.088;11.642;2022-09-09T11:34:18;3.08;;;0.80;;
26977;SDS011;56314;48.088;11.642;2022-09-09T11:37:05;1.80;;;0.80;;
26977;SDS011;56314;48.088;11.642;2022-09-09T11:39:37;1.83;;;0.90;;
26977;SDS011;56314;48.088;11.642;2022-09-09T11:44:39;0.95;;;0.80;;
26977;SDS011;56314;48.088;11.642;2022-09-09T11:47:17;0.65;;;0.63;;
26977;SDS011;56314;48.088;11.642;2022-09-09T11:49:49;1.05;;;0.80;;
26977;SDS011;56314;48.088;11.642;2022-09-09T12:00:36;3.80;;;0.60;;
26977;SDS011;56314;48.088;11.642;2022-09-09T12:03:05;3.50;;;0.88;;
26977;SDS011;56314;48.088;11.642;2022-09-09T12:05:41;1.20;;;0.60;;
26977;SDS011;56314;48.088;11.642;2022-09-09T12:08:10;2.22;;;0.82;;
26977;SDS011;56314;48.088;11.642;2022-09-09T12:10:52;2.45;;;0.75;;
26977;SDS011;56314;48.088;11.642;2022-09-09T12:13:20;2.53;;;0.82;;
26977;SDS011;56314;48.088;11.642;2022-09-09T12:15:52;1.95;;;0.80;;
26977;SDS011;56314;48.088;11.642;2022-09-09T12:18:23;0.80;;;0.57;;
26977;SDS011;56314;48.088;11.642;2022-09-09T12:21:53;2.17;;;0.77;;
26977;SDS011;56314;48.088;11.642;2022-09-09T12:26:35;1.95;;;0.73;;
26977;SDS011;56314;48.088;11.642;2022-09-09T12:31:46;1.17;;;0.70;;
26977;SDS011;56314;48.088;11.642;2022-09-09T12:37:34;0.98;;;0.65;;
26977;SDS011;56314;48.088;11.642;2022-09-09T12:40:01;1.67;;;0.60;;
26977;SDS011;56314;48.088;11.642;2022-09-09T12:42:31;1.65;;;0.85;;
26977;SDS011;56314;48.088;11.642;2022-09-09T12:45:01;1.85;;;0.73;;
26977;SDS011;56314;48.088;11.642;2022-09-09T12:50:23;2.00;;;0.90;;
26977;SDS011;56314;48.088;11.642;2022-09-09T12:52:51;2.47;;;0.77;;
26977;SDS011;56314;48.088;11.642;2022-09-09T12:55:33;0.98;;;0.52;;
26977;SDS011;56314;48.088;11.642;2022-09-09T12:58:01;0.95;;;0.82;;
26977;SDS011;56314;48.088;11.642;2022-09-09T13:00:30;2.83;;;0.98;;
26977;SDS011;56314;48.088;11.642;2022-09-09T13:02:57;1.40;;;0.70;;
26977;SDS011;56314;48.088;11.642;2022-09-09T13:05:37;1.85;;;0.70;;
26977;SDS011;56314;48.088;11.642;2022-09-09T13:08:08;1.55;;;0.80;;
26977;SDS011;56314;48.088;11.642;2022-09-09T13:10:36;1.23;;;0.70;;
26977;SDS011;56314;48.088;11.642;2022-09-09T13:13:15;3.40;;;0.77;;
26977;SDS011;56314;48.088;11.642;2022-09-09T13:15:49;1.02;;;0.60;;
26977;SDS011;56314;48.088;11.642;2022-09-09T13:18:16;2.13;;;0.80;;
26977;SDS011;56314;48.088;11.642;2022-09-09T13:21:04;3.03;;;0.60;;
26977;SDS011;56314;48.088;11.642;2022-09-09T13:23:31;0.73;;;0.63;;
26977;SDS011;56314;48.088;11.642;2022-09-09T13:26:53;1.23;;;0.70;;
26977;SDS011;56314;48.088;11.642;2022-09-09T13:28:47;2.00;;;1.20;;
26977;SDS011;56314;48.088;11.642;2022-09-09T13:31:47;1.27;;;0.50;;
26977;SDS011;56314;48.088;11.642;2022-09-09T13:34:12;1.52;;;0.40;;
26977;SDS011;56314;48.088;11.642;2022-09-09T13:36:39;0.63;;;0.45;;
26977;SDS011;56314;48.088;11.642;2022-09-09T13:39:13;3.13;;;0.90;;
26977;SDS011;56314;48.088;11.642;2022-09-09T13:41:44;1.27;;;0.65;;
26977;SDS011;56314;48.088;11.642;2022-09-09T13:44:17;3.35;;;0.70;;
26977;SDS011;56314;48.088;11.642;2022-09-09T13:46:47;3.60;;;1.05;;
26977;SDS011;56314;48.088;11.642;2022-09-09T13:49:24;1.65;;;0.95;;
26977;SDS011;56314;48.088;11.642;2022-09-09T13:52:02;2.42;;;0.93;;
26977;SDS011;56314;48.088;11.642;2022-09-09T13:54:35;1.13;;;0.80;;
26977;SDS011;56314;48.088;11.642;2022-09-09T13:57:00;3.53;;;0.82;;
26977;SDS011;56314;48.088;11.642;2022-09-09T13:59:26;1.63;;;1.00;;
26977;SDS011;56314;48.088;11.642;2022-09-09T14:01:52;1.63;;;0.73;;
26977;SDS011;56314;48.088;11.642;2022-09-09T14:04:18;0.82;;;0.60;;
26977;SDS011;56314;48.088;11.642;2022-09-09T14:06:46;1.77;;;0.90;;
26977;SDS011;56314;48.088;11.642;2022-09-09T14:09:12;4.80;;;0.85;;
26977;SDS011;56314;48.088;11.642;2022-09-09T14:11:40;2.78;;;0.70;;
26977;SDS011;56314;48.088;11.642;2022-09-09T14:14:05;5.55;;;1.00;;
26977;SDS011;56314;48.088;11.642;2022-09-09T14:16:31;4.57;;;0.90;;
26977;SDS011;56314;48.088;11.642;2022-09-09T14:18:56;2.70;;;0.90;;
26977;SDS011;56314;48.088;11.642;2022-09-09T14:21:22;1.88;;;0.85;;
26977;SDS011;56314;48.088;11.642;2022-09-09T14:23:47;3.05;;;1.00;;
26977;SDS011;56314;48.088;11.642;2022-09-09T14:26:13;2.67;;;0.70;;
26977;SDS011;56314;48.088;11.642;2022-09-09T14:28:39;0.77;;;0.60;;
26977;SDS011;56314;48.088;11.642;2022-09-09T14:31:05;0.80;;;0.52;;
26977;SDS011;56314;48.088;11.642;2022-09-09T14:33:30;1.15;;;0.60;;
26977;SDS011;56314;48.088;11.642;2022-09-09T14:35:59;1.20;;;0.98;;
26977;SDS011;56314;48.088;11.642;2022-09-09T14:38:30;1.17;;;0.60;;
26977;SDS011;56314;48.088;11.642;2022-09-09T14:40:56;1.58;;;0.82;;
26977;SDS011;56314;48.088;11.642;2022-09-09T14:43:23;1.02;;;0.63;;
26977;SDS011;56314;48.088;11.642;2022-09-09T14:45:49;2.28;;;0.80;;
26977;SDS011;56314;48.088;11.642;2022-09-09T14:48:16;1.20;;;0.75;;
26977;SDS011;56314;48.088;11.642;2022-09-09T14:50:42;4.20;;;1.00;;
26977;SDS011;56314;48.088;11.642;2022-09-09T14:53:08;1.77;;;0.80;;
26977;SDS011;56314;48.088;11.642;2022-09-09T14:55:34;2.00;;;0.55;;
26977;SDS011;56314;48.088;11.642;2022-09-09T14:58:00;1.45;;;0.75;;
26977;SDS011;56314;48.088;11.642;2022-09-09T15:00:25;1.10;;;1.00;;
26977;SDS011;56314;48.088;11.642;2022-09-09T15:02:54;3.13;;;0.90;;
26977;SDS011;56314;48.088;11.642;2022-09-09T15:05:20;3.33;;;0.90;;
26977;SDS011;56314;48.088;11.642;2022-09-09T15:07:45;1.98;;;0.93;;
26977;SDS011;56314;48.088;11.642;2022-09-09T15:10:12;2.05;;;1.05;;
26977;SDS011;56314;48.088;11.642;2022-09-09T15:12:37;1.75;;;0.77;;
26977;SDS011;56314;48.088;11.642;2022-09-09T15:15:03;2.33;;;1.00;;
26977;SDS011;56314;48.088;11.642;2022-09-09T15:17:29;1.67;;;1.00;;
26977;SDS011;56314;48.088;11.642;2022-09-09T15:19:54;3.17;;;1.10;;
26977;SDS011;56314;48.088;11.642;2022-09-09T15:22:20;3.70;;;1.00;;
26977;SDS011;56314;48.088;11.642;2022-09-09T15:24:46;1.80;;;0.90;;
26977;SDS011;56314;48.088;11.642;2022-09-09T15:27:12;1.90;;;1.15;;
26977;SDS011;56314;48.088;11.642;2022-09-09T15:29:39;2.20;;;0.90;;
26977;SDS011;56314;48.088;11.642;2022-09-09T15:32:05;3.95;;;1.15;;
26977;SDS011;56314;48.088;11.642;2022-09-09T15:34:30;3.22;;;1.20;;
26977;SDS011;56314;48.088;11.642;2022-09-09T15:36:56;2.95;;;0.90;;
26977;SDS011;56314;48.088;11.642;2022-09-09T15:39:21;2.22;;;0.90;;
26977;SDS011;56314;48.088;11.642;2022-09-09T15:41:47;1.75;;;0.77;;
26977;SDS011;56314;48.088;11.642;2022-09-09T15:44:14;2.65;;;1.10;;
26977;SDS011;56314;48.088;11.642;2022-09-09T15:46:41;2.15;;;0.90;;
26977;SDS011;56314;48.088;11.642;2022-09-09T15:49:09;2.78;;;1.25;;
26977;SDS011;56314;48.088;11.642;2022-09-09T15:51:37;2.50;;;1.00;;
26977;SDS011;56314;48.088;11.642;2022-09-09T15:54:04;2.65;;;1.13;;
26977;SDS011;56314;48.088;11.642;2022-09-09T15:56:30;3.85;;;1.00;;
26977;SDS011;56314;48.088;11.642;2022-09-09T15:58:56;1.17;;;0.80;;
26977;SDS011;56314;48.088;11.642;2022-09-09T16:01:24;6.25;;;1.20;;
26977;SDS011;56314;48.088;11.642;2022-09-09T16:03:50;2.42;;;0.90;;
26977;SDS011;56314;48.088;11.642;2022-09-09T16:06:19;2.50;;;0.93;;
26977;SDS011;56314;48.088;11.642;2022-09-09T16:08:47;1.25;;;0.95;;
26977;SDS011;56314;48.088;11.642;2022-09-09T16:11:50;1.55;;;0.95;;
26977;SDS011;56314;48.088;11.642;2022-09-09T16:14:09;3.78;;;1.10;;
26977;SDS011;56314;48.088;11.642;2022-09-09T16:16:36;1.27;;;0.75;;
26977;SDS011;56314;48.088;11.642;2022-09-09T16:19:11;2.78;;;1.00;;
26977;SDS011;56314;48.088;11.642;2022-09-09T16:21:39;5.25;;;1.40;;
26977;SDS011;56314;48.088;11.642;2022-09-09T16:24:07;2.78;;;1.00;;
26977;SDS011;56314;48.088;11.642;2022-09-09T16:26:34;1.08;;;0.88;;
26977;SDS011;56314;48.088;11.642;2022-09-09T16:29:01;1.05;;;0.95;;
26977;SDS011;56314;48.088;11.642;2022-09-09T16:31:28;1.40;;;0.88;;
26977;SDS011;56314;48.088;11.642;2022-09-09T16:33:54;4.95;;;1.17;;
26977;SDS011;56314;48.088;11.642;2022-09-09T16:36:21;5.70;;;1.40;;
26977;SDS011;56314;48.088;11.642;2022-09-09T16:38:54;1.17;;;0.82;;
26977;SDS011;56314;48.088;11.642;2022-09-09T16:41:21;2.85;;;0.75;;
26977;SDS011;56314;48.088;11.642;2022-09-09T16:43:47;0.85;;;0.65;;
26977;SDS011;56314;48.088;11.642;2022-09-09T16:46:13;3.05;;;1.10;;
26977;SDS011;56314;48.088;11.642;2022-09-09T16:48:43;2.33;;;1.05;;
26977;SDS011;56314;48.088;11.642;2022-09-09T16:51:14;5.00;;;1.00;;
26977;SDS011;56314;48.088;11.642;2022-09-09T16:53:41;3.05;;;0.90;;
26977;SDS011;56314;48.088;11.642;2022-09-09T16:56:12;3.05;;;0.95;;
26977;SDS011;56314;48.088;11.642;2022-09-09T16:58:39;1.83;;;0.80;;
26977;SDS011;56314;48.088;11.642;2022-09-09T17:01:04;1.50;;;0.70;;
26977;SDS011;56314;48.088;11.642;2022-09-09T17:03:31;3.45;;;1.08;;
26977;SDS011;56314;48.088;11.642;2022-09-09T17:05:57;1.23;;;0.77;;